NCAR-RAP Real-Time Weather Data

Output produced by METARs form (23 June 2021  09:40 UTC)
found at http://weather.rap.ucar.edu/surface/
 
CYQV 230900Z AUTO 23011KT 9SM CLR 18/09 A2944 RMK SLP968 DENSITY ALT 2900FT
CYQV 230800Z AUTO 21009KT 9SM FEW150 18/10 A2945 RMK SLP971 DENSITY ALT 3000FT
CYQV 230700Z AUTO 21006KT 9SM FEW160 19/10 A2946 RMK SLP976 DENSITY ALT 3000FT
CYQV 230600Z AUTO 20006KT 9SM BKN170 20/10 A2946 RMK SLP975 DENSITY ALT 3200FT
CYQV 230500Z AUTO 18003KT 9SM OVC110 22/11 A2948 RMK SLP983 DENSITY ALT 3300FT
CYQV 230400Z AUTO 20005KT 9SM BKN120 OVC140 23/11 A2950 RMK SLP989 DENSITY ALT 3400FT
CYQV 230300Z AUTO 19005KT 9SM OVC170 23/11 A2951 RMK SLP993 DENSITY ALT 3500FT
CYQV 230200Z AUTO 21004KT 9SM BKN150 OVC170 25/11 A2951 RMK SLP994 DENSITY ALT 3600FT
CYQV 230100Z AUTO 26004KT 9SM FEW170 BKN190 26/10 A2952 RMK SLP998 DENSITY ALT 3700FT
CYQV 230000Z AUTO 21005KT 9SM FEW100 SCT160 BKN190 27/08 A2953 RMK SLP000 DENSITY ALT 3900FT
CYQV 222300Z AUTO 21008KT 9SM SCT100 SCT120 BKN190 BKN220 28/06 A2955 RMK SLP009 DENSITY ALT 3900FT
CYQV 222200Z AUTO 24007G15KT 9SM FEW096 28/05 A2957 RMK SLP014 DENSITY ALT 4000FT